Time;durP1;ratioP1;P1;durP2;ratioP2;P2;SDS_P1;SDS_P2;PMS_P1;PMS_P2;Temp;Humidity;BMP_temperature;BMP_pressure;BME280_temperature;BME280_humidity;BME280_pressure;Samples;Min_cycle;Max_cycle;Signal;HPM_P1;HPM_P2
2022/07/13 00:01:40;;;;;;;2.00;0.70;;;;;;;25.93;38.02;100922.03;1759275;80;21042;-82
2022/07/13 00:04:06;;;;;;;1.12;0.70;;;;;;;25.94;38.07;100927.03;1759375;80;21070;-82
2022/07/13 00:06:33;;;;;;;2.15;0.72;;;;;;;25.94;38.12;100929.81;1758965;80;21089;-82
2022/07/13 00:08:59;;;;;;;1.37;0.70;;;;;;;25.94;38.14;100936.79;1759100;80;21019;-81
2022/07/13 00:11:26;;;;;;;1.95;1.42;;;;;;;25.94;38.16;100934.00;1759071;80;21038;-82
2022/07/13 00:13:58;;;;;;;1.20;0.80;;;;;;;25.94;38.21;100940.97;1758878;81;21562;-82
2022/07/13 00:16:24;;;;;;;0.72;0.60;;;;;;;25.93;38.25;100944.34;1759163;81;21477;-82
2022/07/13 00:18:51;;;;;;;1.80;0.80;;;;;;;25.93;38.28;100941.34;1759067;80;20965;-82
2022/07/13 00:21:17;;;;;;;1.07;0.80;;;;;;;25.93;38.30;100940.73;1758882;80;21303;-81
2022/07/13 00:23:44;;;;;;;0.80;0.65;;;;;;;25.93;38.35;100942.13;1759155;80;21042;-83
2022/07/13 00:26:10;;;;;;;2.08;0.82;;;;;;;25.93;38.36;100944.91;1759097;80;21521;-83
2022/07/13 00:28:37;;;;;;;1.05;0.70;;;;;;;25.93;38.38;100942.94;1758803;80;20995;-83
2022/07/13 00:31:03;;;;;;;1.20;0.75;;;;;;;25.93;38.42;100942.94;1759147;80;21034;-83
2022/07/13 00:33:30;;;;;;;1.07;0.55;;;;;;;25.93;38.43;100944.91;1758557;80;20999;-82
2022/07/13 00:35:56;;;;;;;1.17;0.80;;;;;;;25.93;38.45;100945.52;1758512;81;21047;-83
2022/07/13 00:38:22;;;;;;;0.78;0.60;;;;;;;25.93;38.48;100946.30;1758870;80;21474;-82
2022/07/13 00:40:49;;;;;;;1.67;0.78;;;;;;;25.93;38.48;100953.28;1759033;80;21745;-81
2022/07/13 00:43:15;;;;;;;3.45;0.90;;;;;;;25.92;38.52;100947.49;1758888;80;21101;-81
2022/07/13 00:45:42;;;;;;;2.12;0.70;;;;;;;25.93;38.53;100950.48;1759135;80;21350;-82
2022/07/13 00:48:08;;;;;;;0.80;0.65;;;;;;;25.93;38.55;100951.09;1759002;80;21015;-84
2022/07/13 00:50:34;;;;;;;1.55;0.80;;;;;;;25.92;38.58;100948.89;1754795;80;21067;-82
2022/07/13 00:53:01;;;;;;;1.35;0.62;;;;;;;25.91;38.58;100945.28;1692630;83;21387;-82
2022/07/13 00:55:27;;;;;;;2.22;0.80;;;;;;;25.92;38.59;100944.70;1752788;80;21080;-81
2022/07/13 00:57:54;;;;;;;0.88;0.60;;;;;;;25.93;38.60;100948.31;1726762;81;21304;-81
2022/07/13 01:00:20;;;;;;;1.82;0.75;;;;;;;25.92;38.62;100944.70;1754651;81;21081;-82
2022/07/13 01:02:47;;;;;;;1.47;0.88;;;;;;;25.91;38.62;100941.10;1754582;80;21483;-81
2022/07/13 01:05:14;;;;;;;2.02;0.60;;;;;;;25.92;38.64;100947.49;1754296;81;21074;-82
2022/07/13 01:07:40;;;;;;;1.80;0.80;;;;;;;25.91;38.63;100940.28;1754359;81;21105;-81
2022/07/13 01:10:10;;;;;;;1.12;0.75;;;;;;;25.92;38.65;100947.49;1753942;81;21508;-82
2022/07/13 01:12:37;;;;;;;1.05;0.78;;;;;;;25.93;38.64;100942.73;1753898;81;21120;-81
2022/07/13 01:15:05;;;;;;;1.37;0.60;;;;;;;25.91;38.66;100941.67;1754195;81;21010;-83
2022/07/13 01:17:34;;;;;;;1.05;0.68;;;;;;;25.91;38.66;100935.53;1754085;80;21142;-82
2022/07/13 01:20:01;;;;;;;1.30;0.80;;;;;;;25.91;38.65;100931.34;1753991;81;21130;-82
2022/07/13 01:22:40;;;;;;;0.70;0.60;;;;;;;25.90;38.66;100924.72;1754219;80;21095;-81
2022/07/13 01:25:08;;;;;;;0.75;0.60;;;;;;;25.90;38.67;100924.72;1754165;80;21050;-82
2022/07/13 01:27:36;;;;;;;1.42;0.75;;;;;;;25.89;38.66;100925.30;1754449;80;21033;-82
2022/07/13 01:30:03;;;;;;;1.30;0.70;;;;;;;25.90;38.66;100930.29;1754431;80;21228;-83
2022/07/13 01:32:32;;;;;;;1.15;0.70;;;;;;;25.89;38.67;100930.88;1753936;80;21499;-83
2022/07/13 01:34:58;;;;;;;1.20;0.70;;;;;;;25.90;38.70;100928.90;1725595;81;21029;-82
2022/07/13 01:37:24;;;;;;;2.10;0.70;;;;;;;25.89;38.69;100923.09;1754507;80;21041;-82
2022/07/13 01:39:51;;;;;;;1.95;0.70;;;;;;;25.88;38.70;100919.52;1751332;80;21488;-82
2022/07/13 01:42:17;;;;;;;1.10;0.60;;;;;;;25.89;38.69;100930.88;1754570;80;20989;-82
2022/07/13 01:44:45;;;;;;;1.47;0.90;;;;;;;25.90;38.72;100926.11;1754332;80;20999;-82
2022/07/13 01:47:12;;;;;;;1.02;0.70;;;;;;;25.89;38.73;100936.45;1754429;80;21544;-83
2022/07/13 01:49:38;;;;;;;2.12;0.70;;;;;;;25.89;38.70;100928.66;1753812;80;21080;-82
2022/07/13 01:52:11;;;;;;;1.65;0.72;;;;;;;25.88;38.72;100932.05;1751741;80;21065;-82
2022/07/13 01:54:37;;;;;;;1.32;0.78;;;;;;;25.89;38.73;100928.08;1751195;80;22054;-82
2022/07/13 01:57:04;;;;;;;2.55;0.82;;;;;;;25.88;38.73;100927.88;1751453;80;20997;-82
2022/07/13 01:59:30;;;;;;;0.95;0.60;;;;;;;25.88;38.73;100929.27;1751499;80;21045;-82
2022/07/13 02:01:56;;;;;;;1.95;0.70;;;;;;;25.89;38.72;100932.84;1751109;80;21620;-82
2022/07/13 02:04:23;;;;;;;0.88;0.70;;;;;;;25.89;38.74;100939.81;1751503;80;21062;-81
2022/07/13 02:06:50;;;;;;;1.30;0.70;;;;;;;25.88;38.74;100936.23;1751599;80;21116;-82
2022/07/13 02:09:22;;;;;;;2.35;0.93;;;;;;;25.88;38.74;100939.60;1751188;80;21469;-81
2022/07/13 02:11:49;;;;;;;1.95;0.80;;;;;;;25.88;38.75;100929.84;1751735;81;21073;-82
2022/07/13 02:14:15;;;;;;;1.77;0.70;;;;;;;25.86;38.76;100927.97;1751600;80;21029;-82
2022/07/13 02:16:48;;;;;;;2.10;0.85;;;;;;;25.87;38.75;100935.19;1751359;80;21011;-82
2022/07/13 02:19:14;;;;;;;1.05;0.70;;;;;;;25.86;38.76;100924.61;1751580;80;21168;-82
2022/07/13 02:21:41;;;;;;;0.72;0.60;;;;;;;25.86;38.77;100924.61;1751438;80;21085;-82
2022/07/13 02:24:07;;;;;;;1.60;0.80;;;;;;;25.87;38.77;100924.03;1751275;80;21598;-81
2022/07/13 02:26:34;;;;;;;2.37;0.90;;;;;;;25.86;38.79;100920.42;1751500;80;20938;-82
2022/07/13 02:29:00;;;;;;;1.25;0.60;;;;;;;25.85;38.78;100920.77;1751445;80;21034;-82
2022/07/13 02:31:27;;;;;;;1.17;0.70;;;;;;;25.85;38.80;100922.16;1751289;80;20999;-82
2022/07/13 02:33:53;;;;;;;1.82;0.70;;;;;;;25.86;38.81;100932.16;1751573;80;21034;-82
2022/07/13 02:36:19;;;;;;;1.17;0.70;;;;;;;25.86;38.80;100939.13;1751582;81;21021;-81
2022/07/13 02:38:46;;;;;;;1.62;0.60;;;;;;;25.86;38.78;100936.34;1750987;80;21044;-81
2022/07/13 02:41:12;;;;;;;1.55;0.85;;;;;;;25.85;38.82;100936.09;1751580;80;21018;-82
2022/07/13 02:43:39;;;;;;;1.57;0.70;;;;;;;25.85;38.78;100935.52;1751458;80;21491;-82
2022/07/13 02:46:05;;;;;;;1.45;0.80;;;;;;;25.86;38.82;100936.34;1750998;80;20994;-82
2022/07/13 02:48:33;;;;;;;1.10;0.72;;;;;;;25.85;38.82;100938.31;1751384;80;21485;-81
2022/07/13 02:51:00;;;;;;;1.87;0.80;;;;;;;25.83;38.81;100933.68;1751439;80;21006;-82
2022/07/13 02:53:26;;;;;;;1.57;0.80;;;;;;;25.85;38.82;100934.12;1751168;80;21579;-81
2022/07/13 02:55:53;;;;;;;1.98;0.72;;;;;;;25.84;38.81;100936.67;1751429;80;21089;-82
2022/07/13 02:58:19;;;;;;;1.27;0.70;;;;;;;25.83;38.82;100936.47;1751464;80;21089;-81
2022/07/13 03:00:45;;;;;;;0.75;0.60;;;;;;;25.85;38.83;100940.28;1751243;80;21080;-82
2022/07/13 03:03:12;;;;;;;1.22;0.75;;;;;;;25.84;38.81;100935.89;1751406;80;21037;-82
2022/07/13 03:05:38;;;;;;;1.15;0.80;;;;;;;25.83;38.81;100935.66;1751520;80;21085;-81
2022/07/13 03:08:05;;;;;;;1.20;0.78;;;;;;;25.83;38.79;100939.83;1751400;80;21149;-81
2022/07/13 03:10:31;;;;;;;2.72;0.90;;;;;;;25.82;38.83;100934.84;1751754;80;21558;-82
2022/07/13 03:12:58;;;;;;;1.37;0.70;;;;;;;25.82;38.82;100942.38;1757666;80;21088;-82
2022/07/13 03:15:25;;;;;;;1.70;0.85;;;;;;;25.82;38.83;100938.20;1751405;80;21060;-82
2022/07/13 03:17:53;;;;;;;1.40;0.80;;;;;;;25.82;38.80;100943.20;1751507;80;20954;-81
2022/07/13 03:20:20;;;;;;;1.25;0.70;;;;;;;25.82;38.84;100943.77;1751725;80;22173;-81
2022/07/13 03:22:49;;;;;;;2.30;0.80;;;;;;;25.82;38.82;100946.56;1751308;80;21017;-81
2022/07/13 03:25:15;;;;;;;1.15;0.70;;;;;;;25.82;38.83;100947.95;1751619;80;21096;-82
2022/07/13 03:27:42;;;;;;;1.10;0.70;;;;;;;25.82;38.83;100951.56;1751607;80;21076;-81
2022/07/13 03:30:09;;;;;;;1.40;0.70;;;;;;;25.82;38.85;100943.77;1751414;80;21089;-81
2022/07/13 03:32:37;;;;;;;1.95;0.80;;;;;;;25.82;38.83;100947.38;1751752;80;21053;-81
2022/07/13 03:35:04;;;;;;;1.22;0.80;;;;;;;25.81;38.85;100942.14;1751671;80;21093;-82
2022/07/13 03:37:31;;;;;;;1.32;0.78;;;;;;;25.82;38.83;100943.77;1751225;80;21104;-81
2022/07/13 03:39:58;;;;;;;2.17;0.80;;;;;;;25.81;38.84;100942.96;1751576;80;21030;-82
2022/07/13 03:42:24;;;;;;;1.20;0.80;;;;;;;25.81;38.85;100945.75;1751688;81;21080;-81
2022/07/13 03:44:51;;;;;;;1.60;0.72;;;;;;;25.81;38.85;100945.75;1751215;82;21046;-81
2022/07/13 03:47:17;;;;;;;1.20;0.80;;;;;;;25.82;38.84;100952.14;1751544;80;21524;-81
2022/07/13 03:49:44;;;;;;;1.37;0.72;;;;;;;25.81;38.88;100954.11;1751663;80;21128;-81
2022/07/13 03:52:10;;;;;;;1.02;0.70;;;;;;;25.82;38.84;100954.92;1751321;80;21030;-81
2022/07/13 03:54:36;;;;;;;1.55;0.82;;;;;;;25.82;38.85;100947.95;1751288;80;21018;-82
2022/07/13 03:57:03;;;;;;;1.75;0.80;;;;;;;25.82;38.85;100949.35;1751566;81;21175;-82
2022/07/13 03:59:29;;;;;;;2.20;0.88;;;;;;;25.81;38.86;100944.93;1751134;80;21125;-82
2022/07/13 04:01:56;;;;;;;2.62;1.20;;;;;;;25.81;38.85;100948.53;1751540;80;21009;-82
2022/07/13 04:04:22;;;;;;;1.30;0.90;;;;;;;25.82;38.83;100947.95;1751554;80;21370;-82
2022/07/13 04:06:48;;;;;;;1.57;1.00;;;;;;;25.81;38.86;100948.53;1751479;81;21077;-82
2022/07/13 04:09:15;;;;;;;0.85;0.75;;;;;;;25.82;38.84;100942.38;1751525;81;21102;-82
2022/07/13 04:11:42;;;;;;;1.67;1.00;;;;;;;25.81;38.84;100943.53;1751679;80;21036;-82
2022/07/13 04:14:09;;;;;;;1.90;1.00;;;;;;;25.82;38.86;100947.95;1751503;80;21093;-81
2022/07/13 04:16:35;;;;;;;2.15;0.90;;;;;;;25.82;38.86;100945.98;1751612;80;21025;-81
2022/07/13 04:19:01;;;;;;;1.32;0.90;;;;;;;25.80;38.86;100946.91;1751672;80;21496;-81
2022/07/13 04:21:28;;;;;;;1.65;1.00;;;;;;;25.81;38.89;100956.08;1731977;81;23337;-81
2022/07/13 04:23:54;;;;;;;2.40;1.00;;;;;;;25.82;38.88;100959.11;1740989;81;21038;-81
2022/07/13 04:26:21;;;;;;;2.45;0.98;;;;;;;25.82;38.90;100956.31;1751488;80;21926;-81
2022/07/13 04:28:47;;;;;;;2.50;1.00;;;;;;;25.81;38.90;100956.89;1750944;80;21527;-81
2022/07/13 04:31:14;;;;;;;1.92;0.98;;;;;;;25.82;38.91;100953.53;1751131;80;20994;-81
2022/07/13 04:33:40;;;;;;;1.32;0.80;;;;;;;25.81;38.92;100959.69;1751325;81;21506;-81
2022/07/13 04:36:07;;;;;;;4.37;1.05;;;;;;;25.81;38.91;100952.72;1751018;81;21053;-81
2022/07/13 04:38:35;;;;;;;1.50;0.80;;;;;;;25.84;38.91;100957.58;1751538;80;21002;-80
2022/07/13 04:41:01;;;;;;;1.98;0.95;;;;;;;25.83;38.89;100956.56;1751489;80;21058;-81
2022/07/13 04:43:27;;;;;;;2.80;1.12;;;;;;;25.83;38.90;100955.16;1751213;80;21738;-82
2022/07/13 04:45:54;;;;;;;1.10;0.75;;;;;;;25.84;38.87;100953.40;1757294;80;21982;-82
2022/07/13 04:48:20;;;;;;;1.98;1.00;;;;;;;25.82;38.88;100946.56;1751200;80;21092;-82
2022/07/13 04:50:47;;;;;;;1.62;1.00;;;;;;;25.83;38.88;100954.59;1750923;81;21022;-82
2022/07/13 04:53:13;;;;;;;1.30;0.90;;;;;;;25.83;38.87;100951.80;1751259;80;21105;-82
2022/07/13 04:55:40;;;;;;;2.10;1.00;;;;;;;25.84;38.87;100953.40;1751370;80;21002;-82
2022/07/13 04:58:07;;;;;;;1.35;0.90;;;;;;;25.85;38.89;100957.82;1751251;80;21167;-82
2022/07/13 05:00:37;;;;;;;3.50;1.00;;;;;;;25.84;38.89;100952.01;1751186;80;21016;-81
2022/07/13 05:03:03;;;;;;;2.27;1.13;;;;;;;25.82;38.90;100950.16;1751651;81;21148;-82
2022/07/13 05:05:32;;;;;;;2.42;1.40;;;;;;;25.80;38.89;100952.47;1751073;80;21104;-82
2022/07/13 05:07:59;;;;;;;7.10;1.70;;;;;;;25.71;38.59;100957.96;1751828;81;21655;-82
2022/07/13 05:10:32;;;;;;;4.95;1.62;;;;;;;25.62;38.52;100958.08;1751412;80;21107;-82
2022/07/13 05:12:58;;;;;;;1.35;1.10;;;;;;;25.57;38.49;100965.84;1751301;80;21480;-81
2022/07/13 05:15:25;;;;;;;3.45;0.95;;;;;;;25.53;38.54;100964.34;1751418;80;21045;-82
2022/07/13 05:17:51;;;;;;;4.30;1.40;;;;;;;25.53;38.60;100958.77;1751372;80;21077;-81
2022/07/13 05:20:18;;;;;;;2.52;1.80;;;;;;;25.52;38.53;100963.25;1751184;80;21065;-82
2022/07/13 05:22:50;;;;;;;3.52;1.80;;;;;;;25.50;38.60;100959.44;1751220;80;21124;-81
2022/07/13 05:25:17;;;;;;;3.62;1.32;;;;;;;25.46;38.53;100950.94;1751012;80;20985;-82
2022/07/13 05:27:43;;;;;;;8.95;2.20;;;;;;;25.46;38.50;100952.94;1742182;80;21076;-81
2022/07/13 05:30:10;;;;;;;4.78;1.98;;;;;;;25.45;38.45;100945.73;1722668;81;21041;-81
2022/07/13 05:32:42;;;;;;;4.37;1.60;;;;;;;25.40;38.41;100945.37;1745390;82;20992;-82
2022/07/13 05:35:10;;;;;;;5.45;1.92;;;;;;;25.38;38.29;100940.72;1745355;80;21051;-82
2022/07/13 05:37:36;;;;;;;7.95;2.27;;;;;;;25.39;38.29;100947.92;1745441;80;21918;-84
2022/07/13 05:40:05;;;;;;;4.62;2.22;;;;;;;25.38;38.10;100947.68;1745676;80;21505;-82
2022/07/13 05:42:32;;;;;;;4.97;2.15;;;;;;;25.38;38.19;100946.87;1745399;80;21043;-83
2022/07/13 05:44:58;;;;;;;4.55;2.20;;;;;;;25.39;38.16;100953.49;1746134;80;21112;-83
2022/07/13 05:47:25;;;;;;;6.90;1.82;;;;;;;25.41;38.12;100948.98;1735706;81;21080;-83
2022/07/13 05:49:51;;;;;;;2.40;1.57;;;;;;;25.38;37.90;100949.08;1738497;81;21571;-83
2022/07/13 05:52:18;;;;;;;4.58;1.85;;;;;;;25.37;37.95;100947.47;1749420;80;21493;-82
2022/07/13 05:54:44;;;;;;;4.72;1.90;;;;;;;25.38;37.86;100945.47;1723350;81;21101;-83
2022/07/13 05:57:11;;;;;;;5.42;1.85;;;;;;;25.38;37.87;100939.91;1750489;80;21033;-81
2022/07/13 05:59:37;;;;;;;7.45;2.58;;;;;;;25.40;37.76;100943.17;1754165;80;21082;-83
2022/07/13 06:02:04;;;;;;;5.37;2.27;;;;;;;25.42;37.74;100941.65;1754209;80;21041;-83
2022/07/13 06:04:30;;;;;;;5.70;1.62;;;;;;;25.43;37.68;100943.28;1743376;80;21037;-82
2022/07/13 06:06:56;;;;;;;2.47;1.42;;;;;;;25.41;37.46;100931.69;1754424;80;21121;-83
2022/07/13 06:09:23;;;;;;;2.95;1.40;;;;;;;25.40;37.56;100933.42;1745024;80;21569;-83
2022/07/13 06:11:49;;;;;;;2.60;1.40;;;;;;;25.41;37.49;100938.66;1754209;80;21427;-83
2022/07/13 06:14:22;;;;;;;3.10;1.10;;;;;;;25.42;37.46;100935.27;1754376;80;21067;-83
2022/07/13 06:16:48;;;;;;;3.05;1.52;;;;;;;25.44;37.49;100935.17;1752880;80;21054;-83
2022/07/13 06:19:14;;;;;;;2.92;1.40;;;;;;;25.44;37.46;100933.77;1753500;81;21102;-83
2022/07/13 06:21:41;;;;;;;3.62;2.10;;;;;;;25.47;37.44;100935.86;1753680;81;21650;-83
2022/07/13 06:24:07;;;;;;;4.67;1.40;;;;;;;25.51;37.38;100933.75;1750670;81;21525;-84
2022/07/13 06:26:34;;;;;;;2.50;1.22;;;;;;;25.54;37.36;100931.14;1753324;81;21018;-84
2022/07/13 06:29:00;;;;;;;3.95;1.95;;;;;;;25.58;37.29;100934.05;1753361;80;21128;-83
2022/07/13 06:31:27;;;;;;;2.65;1.72;;;;;;;25.60;37.21;100931.70;1751920;80;21101;-82
2022/07/13 06:33:53;;;;;;;4.37;1.70;;;;;;;25.59;37.13;100929.50;1744646;80;21504;-84
2022/07/13 06:36:19;;;;;;;3.37;1.90;;;;;;;25.59;37.09;100937.07;1742705;81;21137;-84
2022/07/13 06:38:46;;;;;;;3.98;1.30;;;;;;;25.59;37.00;100938.46;1720081;83;21047;-84
2022/07/13 06:41:13;;;;;;;3.62;1.85;;;;;;;25.59;36.59;100930.10;1710482;83;21068;-85
2022/07/13 06:43:39;;;;;;;3.90;1.70;;;;;;;25.55;36.57;100931.35;1724680;81;21120;-83
2022/07/13 06:46:06;;;;;;;5.22;1.17;;;;;;;25.54;36.59;100938.69;1736689;81;21031;-83
2022/07/13 06:48:32;;;;;;;1.80;1.02;;;;;;;25.56;36.64;100933.56;1736318;81;21131;-83
2022/07/13 06:50:59;;;;;;;2.65;1.00;;;;;;;25.58;36.58;100946.00;1753184;80;21116;-84
2022/07/13 06:53:25;;;;;;;4.17;1.10;;;;;;;25.60;36.52;100947.84;1743576;80;21025;-83
2022/07/13 06:55:52;;;;;;;2.22;1.30;;;;;;;25.62;36.42;100942.75;1746319;81;21040;-82
2022/07/13 06:58:18;;;;;;;7.35;1.50;;;;;;;25.65;36.35;100939.26;1750971;80;21029;-82
2022/07/13 07:00:45;;;;;;;2.55;1.20;;;;;;;25.66;36.22;100933.92;1742623;81;21402;-83
2022/07/13 07:03:11;;;;;;;2.83;1.00;;;;;;;25.69;36.15;100939.37;1738623;81;21618;-81
2022/07/13 07:05:37;;;;;;;4.30;0.93;;;;;;;25.69;36.06;100937.40;1722589;81;20950;-82
2022/07/13 07:08:04;;;;;;;2.05;1.15;;;;;;;25.67;35.95;100938.92;1733489;80;21545;-82
2022/07/13 07:10:31;;;;;;;2.55;1.60;;;;;;;25.69;35.93;100943.55;1729964;80;21080;-82
2022/07/13 07:12:57;;;;;;;2.50;1.35;;;;;;;25.70;35.83;100943.78;1761389;80;21614;-82
2022/07/13 07:15:23;;;;;;;2.25;1.20;;;;;;;25.69;35.82;100951.33;1763055;80;21067;-82
2022/07/13 07:17:50;;;;;;;7.53;1.30;;;;;;;25.71;35.73;100941.23;1756757;80;21101;-81
2022/07/13 07:20:17;;;;;;;5.03;1.92;;;;;;;25.69;35.58;100946.34;1731826;80;21016;-83
2022/07/13 07:22:45;;;;;;;4.17;2.02;;;;;;;25.67;35.63;100948.09;1737430;81;21085;-83
2022/07/13 07:25:12;;;;;;;2.47;1.22;;;;;;;25.70;35.63;100950.17;1752781;80;21418;-82
2022/07/13 07:27:41;;;;;;;4.10;1.30;;;;;;;25.71;35.56;100952.39;1753520;80;21045;-83
2022/07/13 07:30:10;;;;;;;3.60;1.37;;;;;;;25.69;35.44;100949.13;1727196;81;21053;-83
2022/07/13 07:32:38;;;;;;;2.00;1.35;;;;;;;25.68;35.48;100953.88;1753464;80;21033;-84
2022/07/13 07:35:07;;;;;;;1.87;1.30;;;;;;;25.70;35.47;100952.15;1758120;80;21053;-84
2022/07/13 07:37:34;;;;;;;3.15;1.00;;;;;;;25.72;35.37;100954.80;1753896;79;21856;-83
2022/07/13 07:40:00;;;;;;;2.92;1.00;;;;;;;25.72;35.28;100953.41;1740177;80;21015;-84
2022/07/13 07:42:29;;;;;;;1.75;1.22;;;;;;;25.72;35.21;100956.78;1744174;80;20978;-84
2022/07/13 07:44:56;;;;;;;2.45;0.98;;;;;;;25.76;35.08;100954.91;1749726;80;21098;-83
2022/07/13 07:47:25;;;;;;;2.80;1.42;;;;;;;25.77;35.03;100957.94;1773950;80;21022;-84
2022/07/13 07:49:54;;;;;;;3.35;0.90;;;;;;;25.79;35.00;100950.88;1748268;79;21238;-84
2022/07/13 07:52:21;;;;;;;2.50;1.10;;;;;;;25.78;34.89;100956.20;1728092;81;21057;-83
2022/07/13 07:54:48;;;;;;;4.37;1.15;;;;;;;25.82;34.80;100947.95;1748365;80;21052;-81
2022/07/13 07:57:14;;;;;;;4.62;1.40;;;;;;;25.80;34.68;100946.91;1710380;83;21745;-83
2022/07/13 07:59:41;;;;;;;1.95;1.20;;;;;;;25.79;34.67;100948.09;1739240;81;21330;-82
2022/07/13 08:02:08;;;;;;;3.22;1.20;;;;;;;25.79;34.65;100950.06;1718705;83;21188;-84
2022/07/13 08:04:35;;;;;;;3.83;1.10;;;;;;;25.82;34.62;100939.59;1717960;81;21674;-83
2022/07/13 08:07:01;;;;;;;4.05;0.93;;;;;;;25.83;34.56;100943.44;1717344;83;21139;-82
2022/07/13 08:09:28;;;;;;;4.22;1.12;;;;;;;25.85;34.51;100938.31;1718059;81;21546;-83
2022/07/13 08:11:56;;;;;;;3.67;0.78;;;;;;;25.85;34.39;100928.55;1719776;82;21059;-82
2022/07/13 08:14:23;;;;;;;1.67;0.90;;;;;;;25.83;34.33;100928.69;1726077;82;21805;-82
2022/07/13 08:16:49;;;;;;;4.28;1.00;;;;;;;25.83;34.33;100933.68;1716368;83;21044;-82
2022/07/13 08:19:15;;;;;;;1.72;1.00;;;;;;;25.85;34.30;100929.13;1717513;81;21059;-81
2022/07/13 08:21:42;;;;;;;1.77;0.80;;;;;;;25.85;34.26;100931.92;1713399;81;21071;-82
2022/07/13 08:24:09;;;;;;;2.27;1.00;;;;;;;25.87;34.10;100926.81;1725572;82;21135;-82
2022/07/13 08:26:35;;;;;;;4.05;1.07;;;;;;;25.87;34.07;100928.21;1708435;82;21131;-81
2022/07/13 08:29:02;;;;;;;1.77;0.90;;;;;;;25.88;34.00;100931.23;1718127;81;21059;-82
2022/07/13 08:31:29;;;;;;;1.52;0.82;;;;;;;25.89;33.92;100920.30;1702643;82;21101;-83
2022/07/13 08:39:31;;;;;;;2.67;0.85;;;;;;;25.91;33.86;100919.38;1705640;83;21345;-84
2022/07/13 08:42:00;;;;;;;1.47;0.78;;;;;;;25.88;33.78;100916.72;1716980;83;21518;-81
2022/07/13 08:44:27;;;;;;;2.17;0.80;;;;;;;25.87;33.67;100917.88;1716818;83;21056;-82
2022/07/13 08:46:54;;;;;;;2.33;0.70;;;;;;;25.86;33.60;100911.25;1714829;82;21071;-83
2022/07/13 08:49:21;;;;;;;0.90;0.65;;;;;;;25.87;33.62;100915.67;1712407;82;21649;-83
2022/07/13 08:51:47;;;;;;;1.72;0.82;;;;;;;25.87;33.50;100915.67;1718822;82;21272;-83
2022/07/13 08:54:14;;;;;;;1.12;0.70;;;;;;;25.87;33.51;100912.88;1718885;82;21500;-83
2022/07/13 08:56:44;;;;;;;2.52;0.80;;;;;;;25.90;33.46;100910.20;1748887;80;21112;-83
2022/07/13 08:59:10;;;;;;;2.17;0.80;;;;;;;25.92;33.41;100912.65;1750278;80;21033;-81
2022/07/13 09:01:42;;;;;;;1.10;0.70;;;;;;;25.91;33.28;100903.47;1750475;81;21038;-83
2022/07/13 09:04:13;;;;;;;3.27;0.60;;;;;;;25.91;33.13;100902.66;1748925;80;21163;-83
2022/07/13 09:06:43;;;;;;;3.58;0.70;;;;;;;25.90;33.11;100901.84;1747523;79;21103;-82
2022/07/13 09:09:31;;;;;;;1.10;0.50;;;;;;;25.91;32.98;100894.30;1749142;82;21115;-83
2022/07/13 09:12:16;;;;;;;1.57;0.98;;;;;;;25.91;32.86;100900.68;1739601;81;21608;-82
2022/07/13 09:14:52;;;;;;;1.37;0.60;;;;;;;25.91;32.86;100892.89;1748420;81;21476;-82
2022/07/13 09:17:35;;;;;;;2.15;0.70;;;;;;;25.91;32.69;100895.69;1750003;80;21180;-83
2022/07/13 09:20:11;;;;;;;1.35;0.60;;;;;;;25.91;32.61;100892.89;1748363;80;21057;-82
2022/07/13 09:23:01;;;;;;;1.72;0.60;;;;;;;25.92;32.52;100888.95;1741582;80;21057;-82
2022/07/13 09:25:32;;;;;;;1.82;0.65;;;;;;;25.93;32.52;100892.56;1747592;80;21053;-83
2022/07/13 09:28:06;;;;;;;1.87;0.70;;;;;;;25.94;32.50;100882.42;1750183;81;21564;-82
2022/07/13 09:30:34;;;;;;;1.02;0.70;;;;;;;25.93;32.33;100884.40;1739996;82;21164;-83
2022/07/13 09:33:03;;;;;;;2.25;0.80;;;;;;;25.93;32.15;100883.01;1749234;81;21025;-81
2022/07/13 09:35:49;;;;;;;3.20;0.62;;;;;;;25.93;32.15;100887.19;1743597;80;21148;-81
2022/07/13 09:38:36;;;;;;;1.50;0.60;;;;;;;25.95;32.10;100895.21;1720187;82;21081;-82
2022/07/13 09:41:25;;;;;;;0.70;0.50;;;;;;;25.95;32.12;100893.81;1738497;80;21114;-80
2022/07/13 09:47:03;;;;;;;1.82;0.62;;;;;;;25.97;32.01;100887.29;1742420;81;21050;-82
2022/07/13 09:49:42;;;;;;;2.70;0.55;;;;;;;25.97;32.03;100883.11;1749684;81;21070;-82
2022/07/13 09:52:16;;;;;;;1.07;0.68;;;;;;;25.97;31.99;100880.32;1750786;80;20998;-83
2022/07/13 09:54:44;;;;;;;2.27;0.70;;;;;;;25.99;31.92;100881.37;1748039;80;21015;-82
2022/07/13 09:57:13;;;;;;;1.00;0.70;;;;;;;26.00;31.87;100880.22;1767006;78;21548;-82
2022/07/13 09:59:46;;;;;;;1.77;0.50;;;;;;;25.99;31.81;100873.83;1754742;80;21492;-81
2022/07/13 10:02:12;;;;;;;2.12;0.70;;;;;;;26.00;31.80;100878.24;1753505;81;21030;-83
2022/07/13 10:04:40;;;;;;;1.75;0.50;;;;;;;26.01;31.66;100877.09;1757049;80;21070;-82
2022/07/13 10:07:07;;;;;;;1.95;0.53;;;;;;;26.02;31.58;100878.69;1746205;81;21118;-80
2022/07/13 10:09:38;;;;;;;0.80;0.50;;;;;;;26.03;31.54;100881.71;1757190;81;21976;-82
2022/07/13 10:12:09;;;;;;;1.67;0.70;;;;;;;26.04;31.47;100872.77;1759286;80;21080;-82
2022/07/13 10:14:36;;;;;;;2.02;0.70;;;;;;;26.05;31.35;100870.22;1746526;80;21676;-82
2022/07/13 10:17:10;;;;;;;0.50;0.40;;;;;;;26.05;31.26;100865.45;1748006;80;21050;-82
2022/07/13 10:19:49;;;;;;;2.40;0.40;;;;;;;26.06;31.16;100864.27;1741399;80;21082;-82
2022/07/13 10:22:21;;;;;;;2.83;0.57;;;;;;;26.06;31.05;100858.69;1674217;84;21346;-81
2022/07/13 10:24:55;;;;;;;1.65;0.68;;;;;;;26.08;31.02;100858.35;1685913;83;21046;-82
2022/07/13 10:27:27;;;;;;;1.70;0.60;;;;;;;26.08;30.97;100861.14;1739507;80;21524;-82
2022/07/13 10:30:09;;;;;;;2.17;0.60;;;;;;;26.09;30.89;100855.22;1736748;80;21034;-83
2022/07/13 10:32:37;;;;;;;0.62;0.53;;;;;;;26.10;30.82;100845.66;1754683;78;21114;-80
2022/07/13 10:35:10;;;;;;;1.57;0.50;;;;;;;26.10;30.80;100844.84;1759711;78;21134;-81
2022/07/13 10:38:02;;;;;;;2.47;0.60;;;;;;;26.10;30.76;100841.48;1775356;78;20911;-82
2022/07/13 10:40:32;;;;;;;2.00;0.60;;;;;;;26.10;30.72;100834.52;1787903;80;21014;-82
2022/07/13 10:43:04;;;;;;;1.22;0.62;;;;;;;26.12;30.64;100829.98;1773479;80;21040;-84
2022/07/13 10:45:41;;;;;;;0.90;0.60;;;;;;;26.12;30.62;100832.20;1784103;78;21326;-81
2022/07/13 10:48:30;;;;;;;4.10;0.68;;;;;;;26.12;30.57;100827.20;1750665;80;21077;-82
2022/07/13 10:50:59;;;;;;;1.50;0.42;;;;;;;26.12;30.49;100832.20;1749596;80;21022;-83
2022/07/13 10:53:50;;;;;;;1.20;0.60;;;;;;;26.13;30.39;100830.22;1736806;80;21077;-82
2022/07/13 10:56:18;;;;;;;0.78;0.55;;;;;;;26.16;30.37;100825.32;1756102;79;21050;-82
2022/07/13 10:58:46;;;;;;;1.52;0.50;;;;;;;26.15;30.40;100818.92;1757780;80;21699;-83
2022/07/13 11:01:41;;;;;;;0.70;0.50;;;;;;;26.15;30.31;100813.93;1757321;81;21120;-82
2022/07/13 11:04:05;;;;;;;2.10;0.62;;;;;;;26.16;30.29;100814.16;1729171;81;21330;-83
2022/07/13 11:06:31;;;;;;;0.42;0.42;;;;;;;26.15;30.43;100804.98;1697336;81;21019;-83
2022/07/13 11:09:11;;;;;;;1.12;0.50;;;;;;;26.16;30.42;100809.98;1731296;81;21919;-81
2022/07/13 11:11:48;;;;;;;0.90;0.40;;;;;;;26.14;30.31;100804.75;1756081;80;21086;-82
2022/07/13 11:14:40;;;;;;;1.80;0.60;;;;;;;26.14;30.30;100812.33;1745021;80;21125;-81
2022/07/13 11:17:19;;;;;;;0.55;0.40;;;;;;;26.14;30.28;100813.73;1770617;80;21533;-82
2022/07/13 11:20:12;;;;;;;0.65;0.50;;;;;;;26.12;30.27;100813.25;1752628;80;21033;-82
2022/07/13 11:25:46;;;;;;;0.85;0.60;;;;;;;26.15;30.31;100805.56;1757394;78;21018;-81
2022/07/13 11:28:59;;;;;;;1.67;0.98;;;;;;;26.14;30.30;100793.59;1756952;78;21169;-82
2022/07/13 11:31:26;;;;;;;1.10;0.60;;;;;;;26.15;30.31;100799.98;1744462;80;21081;-81
2022/07/13 11:33:53;;;;;;;4.37;0.70;;;;;;;26.16;30.34;100790.47;1756304;80;21292;-81
2022/07/13 11:36:26;;;;;;;0.90;0.53;;;;;;;26.18;30.34;100789.53;1756327;81;21623;-82
2022/07/13 11:38:55;;;;;;;3.33;0.75;;;;;;;26.16;30.33;100778.73;1756485;80;21121;-81
2022/07/13 11:41:27;;;;;;;2.97;0.60;;;;;;;26.16;30.34;100785.70;1757100;80;21187;-80
2022/07/13 11:43:54;;;;;;;1.45;0.65;;;;;;;26.17;30.34;100780.36;1747806;81;21598;-81